createdAt,value
2017-08-16T00:01:03.048Z,18.70
2017-08-16T00:03:30.576Z,18.70
2017-08-16T00:05:58.079Z,18.80
2017-08-16T00:08:26.007Z,18.90
2017-08-16T00:10:53.507Z,18.90
2017-08-16T00:13:21.027Z,18.90
2017-08-16T00:15:48.555Z,18.90
2017-08-16T00:18:16.074Z,18.90
2017-08-16T00:20:44.716Z,18.90
2017-08-16T00:23:12.253Z,19.00
2017-08-16T00:25:39.763Z,18.90
2017-08-16T00:28:07.267Z,19.00
2017-08-16T00:30:35.171Z,19.00
2017-08-16T00:33:03.443Z,19.00
2017-08-16T00:35:30.976Z,19.00
2017-08-16T00:37:59.251Z,19.00
2017-08-16T00:40:27.531Z,19.00
2017-08-16T00:42:55.044Z,19.00
2017-08-16T00:45:22.576Z,19.00
2017-08-16T00:47:50.079Z,19.00
2017-08-16T00:50:17.621Z,19.00
2017-08-16T00:52:45.897Z,19.00
2017-08-16T00:55:13.427Z,19.10
2017-08-16T00:57:40.926Z,19.20
2017-08-16T01:00:08.420Z,19.20
2017-08-16T01:02:35.959Z,19.30
2017-08-16T01:05:04.218Z,19.20
2017-08-16T01:07:31.740Z,19.20
2017-08-16T01:09:59.243Z,19.20
2017-08-16T01:12:26.772Z,19.20
2017-08-16T01:14:54.278Z,19.20
2017-08-16T01:17:21.791Z,19.30
2017-08-16T01:19:50.433Z,19.30
2017-08-16T01:22:18.720Z,19.40
2017-08-16T01:24:46.231Z,19.40
2017-08-16T01:27:13.760Z,19.30
2017-08-16T01:29:41.266Z,19.30
2017-08-16T01:32:08.779Z,19.30
2017-08-16T01:34:36.336Z,19.20
2017-08-16T01:37:04.603Z,19.10
2017-08-16T01:39:32.524Z,19.10
2017-08-16T01:42:00.031Z,19.10
2017-08-16T01:44:27.555Z,19.10
2017-08-16T01:46:55.839Z,19.20
2017-08-16T01:49:23.362Z,19.20
2017-08-16T01:54:20.127Z,19.30
2017-08-16T01:56:48.028Z,19.30
2017-08-16T01:59:15.564Z,19.20
2017-08-16T02:01:43.072Z,19.20
2017-08-16T02:04:10.571Z,19.20
2017-08-16T02:06:38.492Z,19.30
2017-08-16T02:09:05.986Z,19.30
2017-08-16T02:11:33.900Z,19.30
2017-08-16T02:14:01.420Z,19.30
2017-08-16T02:16:28.947Z,19.30
2017-08-16T02:18:56.443Z,19.40
2017-08-16T02:21:24.374Z,19.40
2017-08-16T02:23:51.883Z,19.40
2017-08-16T02:26:19.404Z,19.40
2017-08-16T02:28:46.906Z,19.30
2017-08-16T02:31:14.439Z,19.30
2017-08-16T02:33:41.963Z,19.30
2017-08-16T02:36:09.463Z,19.30
2017-08-16T02:38:36.981Z,19.40
2017-08-16T02:41:04.485Z,19.40
2017-08-16T02:43:32.053Z,19.40
2017-08-16T02:45:59.565Z,19.40
2017-08-16T02:48:27.499Z,19.30
2017-08-16T02:50:55.016Z,19.30
2017-08-16T02:53:22.541Z,19.30
2017-08-16T02:55:50.043Z,19.30
2017-08-16T02:58:17.568Z,19.30
2017-08-16T03:00:45.084Z,19.20
2017-08-16T03:03:12.620Z,19.20
2017-08-16T03:05:40.111Z,19.20
2017-08-16T03:08:07.610Z,19.20
2017-08-16T03:10:35.129Z,19.30
2017-08-16T03:13:02.655Z,19.20
2017-08-16T03:15:30.170Z,19.10
2017-08-16T03:17:57.676Z,19.10
2017-08-16T03:20:25.193Z,19.20
2017-08-16T03:22:53.459Z,19.20
2017-08-16T03:25:20.989Z,19.20
2017-08-16T03:27:49.624Z,19.20
2017-08-16T03:30:17.140Z,19.20
2017-08-16T03:32:45.035Z,19.20
2017-08-16T03:35:12.555Z,19.20
2017-08-16T03:37:40.083Z,19.20
2017-08-16T03:40:07.583Z,19.20
2017-08-16T03:42:35.106Z,19.20
2017-08-16T03:45:02.609Z,19.20
2017-08-16T03:47:30.130Z,19.20
2017-08-16T03:49:59.149Z,19.20
2017-08-16T03:52:26.675Z,19.30
2017-08-16T03:54:55.319Z,19.30
2017-08-16T03:57:22.843Z,19.20
2017-08-16T03:59:50.340Z,19.20
2017-08-16T04:02:17.872Z,19.20
2017-08-16T04:04:45.385Z,19.10
2017-08-16T04:07:12.910Z,19.10
2017-08-16T04:09:40.420Z,19.00
2017-08-16T04:12:08.351Z,19.00
2017-08-16T04:14:36.624Z,19.00
2017-08-16T04:17:04.551Z,19.00
2017-08-16T04:19:32.052Z,18.90
2017-08-16T04:21:59.547Z,19.00
2017-08-16T04:24:27.058Z,19.00
2017-08-16T04:26:54.563Z,19.00
2017-08-16T04:29:22.084Z,19.00
2017-08-16T04:31:49.579Z,19.00
2017-08-16T04:34:17.868Z,19.00
2017-08-16T04:36:45.378Z,19.00
2017-08-16T04:39:12.908Z,19.00
2017-08-16T04:41:40.798Z,19.00
2017-08-16T04:44:08.331Z,19.00
2017-08-16T04:46:36.598Z,19.00
2017-08-16T04:49:04.887Z,19.00
2017-08-16T04:51:32.397Z,19.00
2017-08-16T04:54:01.075Z,19.00
2017-08-16T04:56:29.330Z,19.00
2017-08-16T04:58:57.609Z,19.00
2017-08-16T05:01:25.895Z,19.00
2017-08-16T05:03:53.386Z,19.00
2017-08-16T05:06:21.667Z,19.00
2017-08-16T05:08:49.181Z,19.10
2017-08-16T05:11:16.703Z,19.10
2017-08-16T05:13:44.226Z,19.10
2017-08-16T05:16:12.515Z,19.00
2017-08-16T05:18:40.023Z,19.00
2017-08-16T05:21:08.308Z,19.00
2017-08-16T05:23:35.810Z,19.00
2017-08-16T05:26:03.336Z,19.00
2017-08-16T05:28:30.827Z,19.00
2017-08-16T05:30:58.359Z,19.00
2017-08-16T05:33:25.867Z,19.10
2017-08-16T05:35:53.378Z,19.10
2017-08-16T05:38:22.035Z,19.20
2017-08-16T05:40:49.559Z,19.30
2017-08-16T05:45:45.971Z,19.30
2017-08-16T05:48:13.910Z,19.30
2017-08-16T05:50:41.413Z,19.40
2017-08-16T05:53:08.946Z,19.40
2017-08-16T05:55:36.439Z,19.40
2017-08-16T05:58:03.956Z,19.40
2017-08-16T06:00:31.450Z,19.50
2017-08-16T06:02:59.112Z,19.50
2017-08-16T06:05:27.023Z,19.50
2017-08-16T06:07:54.555Z,19.40
2017-08-16T06:10:22.059Z,19.40
2017-08-16T06:12:49.559Z,19.40
2017-08-16T06:15:17.916Z,19.50
2017-08-16T06:17:45.807Z,19.60
2017-08-16T06:20:13.327Z,19.50
2017-08-16T06:22:40.827Z,19.60
2017-08-16T06:27:37.613Z,19.80
2017-08-16T06:35:03.275Z,20.00
2017-08-16T06:37:32.283Z,20.20
2017-08-16T06:40:00.215Z,20.30
2017-08-16T06:42:28.486Z,20.40
2017-08-16T06:44:55.987Z,20.40
2017-08-16T06:47:23.541Z,20.50
2017-08-16T06:49:51.047Z,20.90
2017-08-16T06:52:19.351Z,21.30
2017-08-16T06:54:46.868Z,21.70
2017-08-16T06:57:14.398Z,22.00
2017-08-16T06:59:41.900Z,22.50
2017-08-16T07:02:09.415Z,22.80
2017-08-16T07:04:36.918Z,23.10
2017-08-16T07:07:04.443Z,23.20
2017-08-16T07:09:31.939Z,23.40
2017-08-16T07:11:59.452Z,23.50
2017-08-16T07:14:27.349Z,23.60
2017-08-16T07:16:54.879Z,23.60
2017-08-16T07:19:22.375Z,23.60
2017-08-16T07:21:49.879Z,23.40
2017-08-16T07:24:17.450Z,23.30
2017-08-16T07:26:44.959Z,23.30
2017-08-16T07:29:12.474Z,23.20
2017-08-16T07:31:40.368Z,23.20
2017-08-16T07:34:08.656Z,23.20
2017-08-16T07:36:36.932Z,23.10
2017-08-16T07:39:04.455Z,23.10
2017-08-16T07:41:31.951Z,23.00
2017-08-16T07:43:59.469Z,22.90
2017-08-16T07:46:26.967Z,22.80
2017-08-16T07:48:54.484Z,22.70
2017-08-16T07:51:21.987Z,22.60
2017-08-16T07:53:49.907Z,22.70
2017-08-16T07:58:46.288Z,22.70
2017-08-16T08:01:13.820Z,22.70
2017-08-16T08:03:41.316Z,22.70
2017-08-16T08:06:09.255Z,22.70
2017-08-16T08:08:36.768Z,22.60
2017-08-16T08:11:05.089Z,22.60
2017-08-16T08:13:33.357Z,22.60
2017-08-16T08:16:00.883Z,22.70
2017-08-16T08:18:28.376Z,22.70
2017-08-16T08:20:57.041Z,22.90
2017-08-16T08:23:24.551Z,23.00
2017-08-16T08:25:52.080Z,23.10
2017-08-16T08:28:19.579Z,23.20
2017-08-16T08:30:47.851Z,23.30
2017-08-16T08:33:15.371Z,23.50
2017-08-16T08:35:42.871Z,23.60
2017-08-16T08:38:10.387Z,23.60
2017-08-16T08:40:37.890Z,23.50
2017-08-16T08:43:06.187Z,23.40
2017-08-16T08:45:33.683Z,23.40
2017-08-16T08:48:01.214Z,23.40
2017-08-16T08:50:29.492Z,23.60
2017-08-16T08:52:57.413Z,23.60
2017-08-16T08:55:25.695Z,23.90
2017-08-16T08:57:53.607Z,24.10
2017-08-16T09:00:21.126Z,24.30
2017-08-16T09:02:50.127Z,24.80
2017-08-16T09:05:17.651Z,25.30
2017-08-16T09:07:45.164Z,25.50
2017-08-16T09:10:12.688Z,25.60
2017-08-16T09:12:40.193Z,26.10
2017-08-16T09:15:07.724Z,26.90
2017-08-16T09:17:35.230Z,27.20
2017-08-16T09:20:03.883Z,27.80
2017-08-16T09:22:31.378Z,28.40
2017-08-16T09:24:59.291Z,28.80
2017-08-16T09:27:26.878Z,29.30
2017-08-16T09:29:55.523Z,29.40
2017-08-16T09:32:23.049Z,29.30
2017-08-16T09:34:50.547Z,29.30
2017-08-16T09:37:18.079Z,29.50
2017-08-16T09:39:45.592Z,29.90
2017-08-16T09:42:13.876Z,30.60
2017-08-16T09:44:41.394Z,31.20
2017-08-16T09:47:08.914Z,31.10
2017-08-16T09:49:36.419Z,31.10
2017-08-16T09:52:05.079Z,31.00
2017-08-16T09:54:32.587Z,30.60
2017-08-16T09:57:01.252Z,30.40
2017-08-16T09:59:29.516Z,30.40
2017-08-16T10:01:57.809Z,30.20
2017-08-16T10:04:25.330Z,29.90
2017-08-16T10:09:21.700Z,29.40
2017-08-16T10:11:49.976Z,29.30
2017-08-16T10:14:17.503Z,29.80
2017-08-16T10:16:46.131Z,30.30
2017-08-16T10:19:14.406Z,30.80
2017-08-16T10:21:42.668Z,31.00
2017-08-16T10:24:10.200Z,31.00
2017-08-16T10:26:38.835Z,31.00
2017-08-16T10:29:06.348Z,30.90
2017-08-16T10:31:34.995Z,30.60
2017-08-16T10:34:02.527Z,30.80
2017-08-16T10:36:30.019Z,31.20
2017-08-16T10:38:57.526Z,31.20
2017-08-16T10:41:25.043Z,31.50
2017-08-16T10:43:53.312Z,31.80
2017-08-16T10:48:50.846Z,32.20
2017-08-16T10:51:18.370Z,31.80
2017-08-16T10:53:45.875Z,31.40
2017-08-16T10:56:13.394Z,30.40
2017-08-16T10:58:40.901Z,29.80
2017-08-16T11:01:09.201Z,29.20
2017-08-16T11:03:37.095Z,28.80
2017-08-16T11:06:04.638Z,28.40
2017-08-16T11:08:32.154Z,28.10
2017-08-16T11:11:00.422Z,27.90
2017-08-16T11:13:28.715Z,27.40
2017-08-16T11:15:56.986Z,27.00
2017-08-16T11:18:26.012Z,26.70
2017-08-16T11:20:54.290Z,26.30
2017-08-16T11:23:22.199Z,26.40
2017-08-16T11:25:50.458Z,26.40
2017-08-16T11:28:18.367Z,26.50
2017-08-16T11:30:45.859Z,26.60
2017-08-16T11:33:13.383Z,26.40
2017-08-16T11:35:40.878Z,26.50
2017-08-16T11:38:08.402Z,26.60
2017-08-16T11:40:37.039Z,26.70
2017-08-16T11:43:04.544Z,26.80
2017-08-16T11:45:32.068Z,26.90
2017-08-16T11:47:59.572Z,26.80
2017-08-16T11:50:27.087Z,26.80
2017-08-16T11:52:54.586Z,26.80
2017-08-16T11:55:22.507Z,26.80
2017-08-16T11:57:50.012Z,26.70
2017-08-16T12:00:17.539Z,26.70
2017-08-16T12:02:45.052Z,26.60
2017-08-16T12:05:12.572Z,26.50
2017-08-16T12:07:40.071Z,26.50
2017-08-16T12:10:08.376Z,26.70
2017-08-16T12:12:35.877Z,26.60
2017-08-16T12:15:04.144Z,26.50
2017-08-16T12:17:31.669Z,26.40
2017-08-16T12:19:59.167Z,26.30
2017-08-16T12:22:27.468Z,26.20
2017-08-16T12:24:54.974Z,26.00
2017-08-16T12:27:22.519Z,25.90
2017-08-16T12:29:50.417Z,25.90
2017-08-16T12:32:17.948Z,25.70
2017-08-16T12:34:45.446Z,25.60
2017-08-16T12:37:12.971Z,25.50
2017-08-16T12:39:40.466Z,25.50
2017-08-16T12:42:07.987Z,25.50
2017-08-16T12:44:35.487Z,25.40
2017-08-16T12:47:03.385Z,25.30
2017-08-16T12:49:30.915Z,25.20
2017-08-16T12:51:58.423Z,25.20
2017-08-16T12:54:25.979Z,25.10
2017-08-16T12:56:54.259Z,25.10
2017-08-16T12:59:22.544Z,25.20
2017-08-16T13:04:18.930Z,25.20
2017-08-16T13:06:47.195Z,25.20
2017-08-16T13:09:15.484Z,25.10
2017-08-16T13:11:42.997Z,25.00
2017-08-16T13:14:10.532Z,25.10
2017-08-16T13:16:38.813Z,25.10
2017-08-16T13:19:07.082Z,25.10
2017-08-16T13:21:35.008Z,25.00
2017-08-16T13:24:02.511Z,25.10
2017-08-16T13:26:30.042Z,25.10
2017-08-16T13:28:57.935Z,25.20
2017-08-16T13:31:25.463Z,25.20
2017-08-16T13:33:52.983Z,25.20
2017-08-16T13:36:20.503Z,25.10
2017-08-16T13:38:47.995Z,25.10
2017-08-16T13:43:44.387Z,25.10
2017-08-16T13:46:11.901Z,25.20
2017-08-16T13:48:39.408Z,25.20
2017-08-16T13:51:07.335Z,25.00
2017-08-16T13:53:34.830Z,25.00
2017-08-16T13:56:02.324Z,25.00
2017-08-16T13:58:29.851Z,25.00
2017-08-16T14:00:57.364Z,24.90
2017-08-16T14:03:24.891Z,24.90
2017-08-16T14:05:52.383Z,24.80
2017-08-16T14:10:48.773Z,24.80
2017-08-16T14:13:16.301Z,24.70
2017-08-16T14:15:44.958Z,24.70
2017-08-16T14:18:12.876Z,24.90
2017-08-16T14:20:40.384Z,24.90
2017-08-16T14:23:07.899Z,24.90
2017-08-16T14:25:35.396Z,24.90
2017-08-16T14:28:02.920Z,24.90
2017-08-16T14:30:30.435Z,24.90
2017-08-16T14:32:57.959Z,24.90
2017-08-16T14:35:25.863Z,25.00
2017-08-16T14:37:53.371Z,25.00
2017-08-16T14:40:20.900Z,25.00
2017-08-16T14:42:48.416Z,25.10
2017-08-16T14:45:15.939Z,25.20
2017-08-16T14:47:43.464Z,25.20
2017-08-16T14:50:10.992Z,25.10
2017-08-16T14:52:38.883Z,25.10
2017-08-16T14:55:06.427Z,25.00
2017-08-16T14:57:33.944Z,24.80
2017-08-16T15:00:01.489Z,24.80
2017-08-16T15:02:28.992Z,24.80
2017-08-16T15:04:56.520Z,24.80
2017-08-16T15:07:24.032Z,24.90
2017-08-16T15:09:51.944Z,24.90
2017-08-16T15:12:19.471Z,24.90
2017-08-16T15:14:46.970Z,24.80
2017-08-16T15:17:14.642Z,24.70
2017-08-16T15:19:42.144Z,24.60
2017-08-16T15:22:10.060Z,24.50
2017-08-16T15:24:38.334Z,24.50
2017-08-16T15:27:05.851Z,24.50
2017-08-16T15:29:33.356Z,24.50
2017-08-16T15:32:01.270Z,24.50
2017-08-16T15:34:29.547Z,24.50
2017-08-16T15:36:57.464Z,24.50
2017-08-16T15:39:24.975Z,24.50
2017-08-16T15:41:52.476Z,24.50
2017-08-16T15:44:20.776Z,24.50
2017-08-16T15:46:48.288Z,24.50
2017-08-16T15:49:15.824Z,24.50
2017-08-16T15:51:44.103Z,24.60
2017-08-16T15:54:12.027Z,24.60
2017-08-16T15:56:40.354Z,24.50
2017-08-16T15:59:07.916Z,24.50
2017-08-16T16:01:35.421Z,24.50
2017-08-16T16:04:03.376Z,24.40
2017-08-16T16:06:32.396Z,24.40
2017-08-16T16:09:00.785Z,24.40
2017-08-16T16:11:28.303Z,24.40
2017-08-16T16:13:55.805Z,24.40
2017-08-16T16:16:24.824Z,24.40
2017-08-16T16:18:53.832Z,24.40
2017-08-16T16:21:21.358Z,24.40
2017-08-16T16:23:48.873Z,24.50
2017-08-16T16:26:17.209Z,24.50
2017-08-16T16:28:44.753Z,24.50
2017-08-16T16:31:12.342Z,24.60
2017-08-16T16:33:40.979Z,24.50
2017-08-16T16:36:08.507Z,24.50
2017-08-16T16:38:37.525Z,24.40
2017-08-16T16:41:05.063Z,24.40
2017-08-16T16:43:32.581Z,24.30
2017-08-16T16:46:00.866Z,24.20
2017-08-16T16:48:29.171Z,24.10
2017-08-16T16:53:25.560Z,24.00
2017-08-16T16:55:53.075Z,23.80
2017-08-16T16:58:20.604Z,23.70
2017-08-16T17:00:48.098Z,23.60
2017-08-16T17:03:15.624Z,23.50
2017-08-16T17:05:43.123Z,23.50
2017-08-16T17:08:11.028Z,23.50
2017-08-16T17:10:39.808Z,23.50
2017-08-16T17:13:07.355Z,23.40
2017-08-16T17:15:35.616Z,23.50
2017-08-16T17:20:32.643Z,23.40
2017-08-16T17:23:00.164Z,23.30
2017-08-16T17:25:28.096Z,23.20
2017-08-16T17:27:55.630Z,23.10
2017-08-16T17:30:23.163Z,23.10
2017-08-16T17:32:50.679Z,23.00
2017-08-16T17:35:18.959Z,23.00
2017-08-16T17:37:46.863Z,22.80
2017-08-16T17:40:14.387Z,22.80
2017-08-16T17:42:41.887Z,22.70
2017-08-16T17:45:09.406Z,22.60
2017-08-16T17:47:37.339Z,22.60
2017-08-16T17:50:06.368Z,22.70
2017-08-16T17:52:33.915Z,22.60
2017-08-16T18:13:03.928Z,22.30
2017-08-16T18:51:06.616Z,21.20
2017-08-16T18:53:34.654Z,21.20
2017-08-16T18:56:02.146Z,21.20
2017-08-16T18:58:30.079Z,21.10
2017-08-16T19:00:58.727Z,21.20
2017-08-16T19:03:26.231Z,21.20
2017-08-16T19:05:53.743Z,21.20
2017-08-16T19:08:21.280Z,21.30
2017-08-16T19:10:48.811Z,21.30
2017-08-16T19:13:16.324Z,21.30
2017-08-16T19:15:45.043Z,21.30
2017-08-16T19:18:13.331Z,21.20
2017-08-16T19:20:40.842Z,21.10
2017-08-16T19:23:08.343Z,21.10
2017-08-16T19:25:36.287Z,21.10
2017-08-16T19:28:03.798Z,21.20
2017-08-16T19:30:31.712Z,21.20
2017-08-16T19:32:59.220Z,21.20
2017-08-16T19:35:27.039Z,21.20
2017-08-16T19:37:54.551Z,21.30
2017-08-16T19:40:22.052Z,21.30
2017-08-16T19:42:49.563Z,21.40
2017-08-16T19:45:17.815Z,21.30
2017-08-16T19:47:45.367Z,21.40
2017-08-16T19:50:12.863Z,21.40
2017-08-16T19:52:41.179Z,21.40
2017-08-16T19:55:09.444Z,21.40
2017-08-16T19:57:37.359Z,21.40
2017-08-16T20:00:05.659Z,21.40
2017-08-16T20:02:33.585Z,21.40
2017-08-16T20:05:01.088Z,21.40
2017-08-16T20:07:28.615Z,21.50
2017-08-16T20:09:56.881Z,21.60
2017-08-16T20:12:25.160Z,21.60
2017-08-16T20:14:52.683Z,21.40
2017-08-16T20:17:20.206Z,21.40
2017-08-16T20:19:47.719Z,21.40
2017-08-16T20:22:15.223Z,21.30
2017-08-16T20:24:43.145Z,21.20
2017-08-16T20:27:11.965Z,21.10
2017-08-16T20:29:39.482Z,21.10
2017-08-16T20:32:08.103Z,21.10
2017-08-16T20:34:35.715Z,21.00
2017-08-16T20:44:31.318Z,21.10
2017-08-16T20:46:58.819Z,21.10
2017-08-16T20:49:26.714Z,21.00
2017-08-16T20:51:54.243Z,21.00
2017-08-16T20:54:21.746Z,20.90
2017-08-16T20:56:49.271Z,20.90
2017-08-16T20:59:16.763Z,20.90
2017-08-16T21:01:44.279Z,20.80
2017-08-16T21:04:11.771Z,20.80
2017-08-16T21:06:39.287Z,20.70
2017-08-16T21:09:06.779Z,20.70
2017-08-16T21:11:34.303Z,20.70
2017-08-16T21:14:01.817Z,20.60
2017-08-16T21:16:30.108Z,20.60
2017-08-16T21:18:59.131Z,20.60
2017-08-16T21:21:27.407Z,20.50
2017-08-16T21:23:56.047Z,20.60
2017-08-16T21:26:23.564Z,20.60
2017-08-16T21:28:51.828Z,20.50
2017-08-16T21:31:19.327Z,20.40
2017-08-16T21:33:46.859Z,20.40
2017-08-16T21:36:15.134Z,20.30
2017-08-16T21:38:42.660Z,20.30
2017-08-16T21:41:10.160Z,20.30
2017-08-16T21:43:37.685Z,20.30
2017-08-16T21:46:05.187Z,20.20
2017-08-16T21:48:32.695Z,20.20
2017-08-16T21:51:00.187Z,20.20
2017-08-16T21:53:27.706Z,20.10
2017-08-16T21:55:55.963Z,20.10
2017-08-16T22:00:52.732Z,20.10
2017-08-16T22:03:20.643Z,20.00
2017-08-16T22:05:48.144Z,20.00
2017-08-16T22:08:15.659Z,20.00
2017-08-16T22:10:43.942Z,20.00
2017-08-16T22:13:12.214Z,20.00
2017-08-16T22:15:40.492Z,19.90
2017-08-16T22:18:07.990Z,19.90
2017-08-16T22:20:35.507Z,19.90
2017-08-16T22:23:03.008Z,19.80
2017-08-16T22:25:30.523Z,19.80
2017-08-16T22:27:58.414Z,19.70
2017-08-16T22:30:26.327Z,19.70
2017-08-16T22:32:53.823Z,19.70
2017-08-16T22:35:21.342Z,19.60
2017-08-16T22:37:49.987Z,19.60
2017-08-16T22:40:17.516Z,19.70
2017-08-16T22:42:45.007Z,19.70
2017-08-16T22:45:12.539Z,19.60
2017-08-16T22:47:40.054Z,19.50
2017-08-16T22:50:08.315Z,19.50
2017-08-16T22:52:36.607Z,19.50
2017-08-16T22:55:04.105Z,19.50
2017-08-16T22:57:32.021Z,19.40
2017-08-16T22:59:59.522Z,19.40
2017-08-16T23:02:27.047Z,19.40
2017-08-16T23:04:54.556Z,19.40
2017-08-16T23:07:22.104Z,19.40
2017-08-16T23:09:49.999Z,19.40
2017-08-16T23:12:17.914Z,19.40
2017-08-16T23:14:45.402Z,19.40
2017-08-16T23:17:12.896Z,19.30
2017-08-16T23:19:40.423Z,19.30
2017-08-16T23:22:08.700Z,19.20
2017-08-16T23:27:05.051Z,19.20
2017-08-16T23:29:32.571Z,19.20
2017-08-16T23:32:00.063Z,19.10
2017-08-16T23:34:27.578Z,19.20
2017-08-16T23:36:55.079Z,19.20
2017-08-16T23:39:22.603Z,19.20
2017-08-16T23:41:50.870Z,19.20
2017-08-16T23:44:18.399Z,19.30
2017-08-16T23:46:45.893Z,19.20
2017-08-16T23:49:14.549Z,19.20
2017-08-16T23:51:42.039Z,19.20
2017-08-16T23:54:10.320Z,19.20
2017-08-16T23:56:38.584Z,19.20
2017-08-16T23:59:06.865Z,19.10
